Friday, August 17, 2018, 9:53 PM CDT
Back to Local

KBTR, Baton Rouge Metro Ryan Field

Location: Baton Rouge, LA, United States Lat: 30.533
Local Time: 9:53 PM CDT ( 2:53 GMT) Lon: -91.15
Time Zone: US/Central Elev: 68 ft

Show me the last for .
Show Decoded

2018-08-17 20:53 METAR KBTR 180153Z 14005KT 10SM CLR 27/24 A3006 RMK AO2 SLP180 T02720244 =
2018-08-17 19:53 METAR KBTR 180053Z 18008KT 10SM FEW029 28/24 A3006 RMK AO2 SLP176 T02830244 =
2018-08-17 18:53 METAR KBTR 172353Z 16009KT 10SM CLR 29/24 A3004 RMK AO2 SLP171 T02940239 10328
                 20294 58004 =
2018-08-17 17:53 METAR KBTR 172253Z 17008KT 10SM FEW060 30/24 A3006 RMK AO2 LTG DSNT NW SLP176
                 T03000239 =
2018-08-17 16:53 METAR KBTR 172153Z 18015KT 10SM CLR 30/24 A3006 RMK AO2 SLP179 T03000239 =
2018-08-17 15:53 METAR KBTR 172053Z 16010KT 10SM SCT045 BKN065 31/24 A3005 RMK AO2 SLP175
                 T03110244 56015 =
2018-08-17 14:53 METAR KBTR 171953Z 20009KT 10SM CLR 33/23 A3006 RMK AO2 LTG DSNT E AND SE SLP178
                 T03280233 =
2018-08-17 13:53 METAR KBTR 171853Z 22008KT 10SM FEW040 31/23 A3008 RMK AO2 LTG DSNT E SLP183
                 T03110228 =
2018-08-17 12:53 METAR KBTR 171753Z 26006KT 10SM FEW040 31/24 A3010 RMK AO2 LTG DSNT NE SLP190
                 60148 T03060244 10306 20228 58006 =
2018-08-17 11:53 METAR KBTR 171653Z 21005KT 10SM FEW030 29/24 A3011 RMK AO2 RAE1557 SLP197 P0000
                 T02890239 =
2018-08-17 11:03 METAR KBTR 171603Z 00000KT 10SM CLR 26/23 A3011 RMK AO2 LTG DSNT N AND E RAE1557
                 P0000 T02610233 =
2018-08-17 10:53 METAR KBTR 171553Z 00000KT 10SM VCTS +RA CLR 26/23 A3011 RMK AO2 LTG DSNT N AND
                 NW SLP195 P0000 T02560233 =
2018-08-17 09:53 METAR KBTR 171453Z 33004KT 5SM VCTS +RA BR BKN035 BKN048 OVC110 24/22 A3012 RMK
                 AO2 WSHFT 1351 LTG DSNT SW SLP197 P0126 60148 T02390222 50001 =
2018-08-17 09:48 METAR KBTR 171448Z 13003KT 5SM VCTS +RA BR BKN031 BKN050 OVC100 23/22 A3012 RMK
                 AO2 WSHFT 1351 LTG DSNT SW P0126 =
2018-08-17 09:47 METAR KBTR 171447Z 14004KT 1 3/4SM VCTS +RA BR BKN031 BKN055 OVC100 23/22 A3012
                 RMK AO2 WSHFT 1351 LTG DSNT SW P0125 =
2018-08-17 09:35 METAR KBTR 171435Z 18006KT 3/4SM VCTS +RA BR BKN022 OVC055 23/22 A3013 RMK AO2
                 WSHFT 1351 P0118 T02280217 RVRNO =
2018-08-17 09:20 METAR KBTR 171420Z 20013G21KT 3/4SM VCTS +RA BR BKN012 BKN021 OVC027 23/23 A3013
                 RMK AO2 WSHFT 1351 P0063 T02330228 RVRNO =
2018-08-17 09:11 METAR KBTR 171411Z 20018G22KT 3/4SM VCTS +RA BR SCT016 BKN023 OVC032 24/23 A3013
                 RMK AO2 WSHFT 1351 P0014 T02440233 RVRNO =
2018-08-17 08:59 METAR KBTR 171359Z 19014KT 3/4SM VCTS +RA BR FEW006 BKN023 OVC038 25/24 A3012
                 RMK AO2 P0007 T02500239 RVRNO =
2018-08-17 08:53 METAR KBTR 171353Z 15014KT 2 1/2SM VCTS +RA BR BKN023 BKN033 OVC041 26/25 A3012
                 RMK AO2 SLP199 P0016 T02610250 =
2018-08-17 08:36 METAR KBTR 171336Z 16006KT 2 1/2SM VCTS +RA BR BKN023 BKN029 OVC035 26/26 A3012
                 RMK AO2 LTG DSNT SW P0008 T02610256 =
2018-08-17 07:53 METAR KBTR 171253Z 11008KT 7SM VCTS +RA BKN025 BKN050 OVC065 26/25 A3011 RMK AO2
                 LTG DSNT S AND SW RAB33 TSB30E45 SLP196 P0006 T02610250 =
2018-08-17 07:47 METAR KBTR 171247Z 12005KT 7SM +RA BKN027 BKN050 OVC070 26/25 A3011 RMK AO2 LTG
                 DSNT S AND SW RAB33 TSB30E45 P0003 =
2018-08-17 07:36 METAR KBTR 171236Z 07004KT 7SM -TSRA SCT025 BKN035 OVC080 25/24 A3011 RMK AO2
                 RAB33 TSB30 P0000 T02500244 =
2018-08-17 06:53 METAR KBTR 171153Z 00000KT 7SM BKN029 BKN047 OVC060 25/24 A3011 RMK AO2 LTG DSNT
                 SW SLP194 70005 T02500244 10250 20244 53008 =
2018-08-17 05:53 METAR KBTR 171053Z 00000KT 10SM FEW037 SCT048 25/24 A3009 RMK AO2 SLP190
                 T02500244 =
2018-08-17 04:53 METAR KBTR 170953Z COR 00000KT SM BR FEW028 SCT034 BKN044 25/24 A3009 RMK AO2
                 SLP189 T02500244 =
2018-08-17 03:53 METAR KBTR 170853Z AUTO 04003KT 6SM BR FEW028 24/24 A3008 RMK AO2 SLP185
                 T02440239 55000 =
2018-08-17 02:53 METAR KBTR 170753Z AUTO 00000KT 6SM BR CLR 24/24 A3007 RMK AO2 SLP182 T02440239
                 =
2018-08-17 01:53 METAR KBTR 170653Z AUTO 00000KT 6SM BR CLR 24/24 A3008 RMK AO2 SLP182 T02440239
                 =
2018-08-17 00:53 METAR KBTR 170553Z AUTO 00000KT 6SM BR CLR 24/24 A3008 RMK AO2 SLP185 60000
                 T02440239 10261 20244 403500233 50002 =
2018-08-16 23:53 METAR KBTR 170453Z AUTO 07003KT 6SM BR CLR 24/24 A3010 RMK AO2 SLP192 T02440239
                 =
2018-08-16 22:53 METAR KBTR 170353Z 05003KT 6SM BR CLR 24/24 A3009 RMK AO2 SLP186 T02440239 =

Support USWX by starting your Amazon purchase here.